Time;durP1;ratioP1;P1;durP2;ratioP2;P2;SDS_P1;SDS_P2;PMS_P1;PMS_P2;Temp;Humidity;BMP_temperature;BMP_pressure;BME280_temperature;BME280_humidity;BME280_pressure;Samples;Min_cycle;Max_cycle;Signal;HPM_P1;HPM_P2
2021/04/09 00:02:10;;;;;;;;;;;;;;;-0.29;68.10;100775.02;1757774;81;20502;-77
2021/04/09 00:04:37;;;;;;;;;;;;;;;-0.27;68.14;100786.23;1743220;81;20239;-78
2021/04/09 00:07:06;;;;;;;;;;;;;;;-0.25;68.18;100779.70;1758201;80;22157;-77
2021/04/09 00:09:35;;;;;;;;;;;;;;;-0.24;68.17;100782.24;1828247;78;20215;-77
2021/04/09 00:12:03;;;;;;;;;;;;;;;-0.20;68.16;100792.08;1829022;78;20235;-76
2021/04/09 00:14:30;;;;;;;;;;;;;;;-0.18;68.12;100792.47;1829904;77;20942;-77
2021/04/09 00:16:59;;;;;;;;;;;;;;;-0.15;68.07;100794.11;1828010;78;20563;-76
2021/04/09 00:19:27;;;;;;;;;;;;;;;-0.14;68.11;100799.70;1792508;78;22306;-77
2021/04/09 00:21:54;;;;;;;;;;;;;;;-0.14;68.09;100799.26;1811179;78;20310;-77
2021/04/09 00:24:21;;;;;;;;;;;;;;;-0.12;68.11;100805.25;1793235;79;20401;-77
2021/04/09 00:26:51;;;;;;;;;;;;;;;-0.13;68.07;100804.84;1776812;80;20276;-76
2021/04/09 00:29:18;;;;;;;;;;;;;;;-0.12;68.06;100805.25;1780713;78;20400;-76
2021/04/09 00:31:46;;;;;;;;;;;;;;;-0.11;68.05;100803.50;1769202;80;22071;-76
2021/04/09 00:34:13;;;;;;;;;;;;;;;-0.10;68.02;100806.05;1803982;78;20245;-77
2021/04/09 00:36:40;;;;;;;;;;;;;;;-0.08;68.00;100813.37;1776272;78;20214;-77
2021/04/09 00:39:08;;;;;;;;;;;;;;;-0.07;67.99;100814.22;1810597;77;20533;-76
2021/04/09 00:41:37;;;;;;;;;;;;;;;-0.08;67.93;100809.48;1831761;78;20406;-77
2021/04/09 00:44:07;;;;;;;;;;;;;;;-0.08;67.90;100808.62;1830991;78;22981;-77
2021/04/09 00:46:34;;;;;;;;;;;;;;;-0.08;67.86;100811.23;1831579;78;20473;-77
2021/04/09 00:49:03;;;;;;;;;;;;;;;-0.10;67.83;100816.44;1833304;78;20218;-77
2021/04/09 00:51:32;;;;;;;;;;;;;;;-0.10;67.82;100821.62;1806986;78;20655;-77
2021/04/09 00:53:59;;;;;;;;;;;;;;;-0.14;67.74;100816.13;1815958;78;20254;-77
2021/04/09 00:56:28;;;;;;;;;;;;;;;-0.21;67.66;100813.30;1834029;78;23388;-77
2021/04/09 00:58:56;;;;;;;;;;;;;;;-0.29;67.66;100813.95;1822317;78;20427;-77
2021/04/09 01:01:24;;;;;;;;;;;;;;;-0.36;67.72;100819.78;1816876;78;20532;-77
2021/04/09 01:03:52;;;;;;;;;;;;;;;-0.43;67.73;100820.83;1811598;78;20532;-76
2021/04/09 01:06:20;;;;;;;;;;;;;;;-0.50;67.79;100814.55;1835131;76;20262;-77
2021/04/09 01:08:48;;;;;;;;;;;;;;;-0.55;67.85;100822.91;1797516;78;22120;-77
2021/04/09 01:11:15;;;;;;;;;;;;;;;-0.62;67.93;100824.36;1830644;78;20349;-76
2021/04/09 01:13:45;;;;;;;;;;;;;;;-0.65;68.06;100824.90;1826675;78;20209;-77
2021/04/09 01:16:16;;;;;;;;;;;;;;;-0.69;68.15;100824.11;1789649;80;20696;-78
2021/04/09 01:18:50;;;;;;;;;;;;;;;-0.73;68.24;100827.69;1788618;80;20237;-79
2021/04/09 01:21:41;;;;;;;;;;;;;;;-0.76;68.31;100831.66;1809569;78;21957;-78
2021/04/09 01:24:28;;;;;;;;;;;;;;;-0.80;68.35;100827.88;1834256;78;20311;-78
2021/04/09 01:27:18;;;;;;;;;;;;;;;-0.84;68.43;100834.04;1820222;78;20516;-78
2021/04/09 01:29:55;;;;;;;;;;;;;;;-0.88;68.54;100836.69;1789743;80;21169;-78
2021/04/09 01:32:22;;;;;;;;;;;;;;;-0.91;68.67;100831.59;1789538;79;20213;-78
2021/04/09 01:34:55;;;;;;;;;;;;;;;-0.92;68.75;100835.52;1789613;80;22047;-78
2021/04/09 01:37:28;;;;;;;;;;;;;;;-0.93;68.78;100841.60;1826305;78;20354;-78
2021/04/09 01:40:06;;;;;;;;;;;;;;;-0.97;68.77;100843.84;1827454;78;20214;-77
2021/04/09 01:42:50;;;;;;;;;;;;;;;-0.98;68.80;100843.44;1889715;75;20254;-78
2021/04/09 01:45:18;;;;;;;;;;;;;;;-1.07;68.89;100849.70;1851335;77;20218;-78
2021/04/09 01:47:48;;;;;;;;;;;;;;;-1.09;68.90;100850.19;1852554;77;22511;-78
2021/04/09 01:50:16;;;;;;;;;;;;;;;-1.12;68.96;100859.34;1852490;77;20348;-78
2021/04/09 01:52:44;;;;;;;;;;;;;;;-1.19;69.08;100856.03;1852457;77;20250;-78
2021/04/09 01:55:12;;;;;;;;;;;;;;;-1.25;69.20;100860.08;1852419;77;20210;-78
2021/04/09 01:57:40;;;;;;;;;;;;;;;-1.31;69.24;100862.80;1852546;77;20493;-78
2021/04/09 02:00:12;;;;;;;;;;;;;;;-1.36;69.35;100873.70;1824315;77;22939;-77
2021/04/09 02:02:39;;;;;;;;;;;;;;;-1.41;69.52;100875.56;1851477;77;21095;-77
2021/04/09 02:05:07;;;;;;;;;;;;;;;-1.43;69.58;100876.48;1835805;77;20220;-76
2021/04/09 02:07:36;;;;;;;;;;;;;;;-1.45;69.65;100873.48;1844044;77;20245;-77
2021/04/09 02:10:04;;;;;;;;;;;;;;;-1.47;69.67;100872.64;1822377;77;20209;-76
2021/04/09 02:12:32;;;;;;;;;;;;;;;-1.49;69.77;100874.87;1852622;77;23025;-77
2021/04/09 02:14:59;;;;;;;;;;;;;;;-1.50;69.79;100879.64;1826359;77;20216;-77
2021/04/09 02:17:26;;;;;;;;;;;;;;;-1.53;69.84;100877.13;1805490;77;20215;-77
2021/04/09 02:19:53;;;;;;;;;;;;;;;-1.54;69.93;100883.20;1824557;78;20265;-76
2021/04/09 02:22:20;;;;;;;;;;;;;;;-1.57;69.98;100887.13;1824620;78;20214;-78
2021/04/09 02:24:48;;;;;;;;;;;;;;;-1.61;70.07;100883.77;1824579;78;22030;-77
2021/04/09 02:27:16;;;;;;;;;;;;;;;-1.63;70.14;100883.39;1824544;78;20340;-77
2021/04/09 02:29:43;;;;;;;;;;;;;;;-1.66;70.20;100890.77;1824592;78;20296;-77
2021/04/09 02:32:11;;;;;;;;;;;;;;;-1.68;70.28;100890.39;1824603;77;21034;-77
2021/04/09 02:34:40;;;;;;;;;;;;;;;-1.71;70.37;100893.06;1829530;77;20218;-76
2021/04/09 02:37:08;;;;;;;;;;;;;;;-1.72;70.42;100896.53;1841555;77;22112;-77
2021/04/09 02:39:35;;;;;;;;;;;;;;;-1.74;70.46;100897.42;1850122;77;20344;-76
2021/04/09 02:42:04;;;;;;;;;;;;;;;-1.77;70.45;100905.23;1824313;77;20481;-76
2021/04/09 02:44:32;;;;;;;;;;;;;;;-1.79;70.54;100908.75;1830939;78;20667;-76
2021/04/09 02:47:04;;;;;;;;;;;;;;;-1.82;70.62;100904.93;1830990;78;20235;-77
2021/04/09 02:49:38;;;;;;;;;;;;;;;-1.85;70.67;100908.85;1834068;77;22056;-77
2021/04/09 02:52:07;;;;;;;;;;;;;;;-1.89;70.70;100907.22;1852069;77;21260;-77
2021/04/09 02:54:35;;;;;;;;;;;;;;;-1.91;70.82;100912.88;1851902;77;20218;-76
2021/04/09 02:57:03;;;;;;;;;;;;;;;-1.95;71.01;100911.22;1851853;77;21025;-77
2021/04/09 02:59:31;;;;;;;;;;;;;;;-1.96;71.14;100918.13;1822021;77;20233;-76
2021/04/09 03:01:58;;;;;;;;;;;;;;;-1.99;71.25;100925.96;1852171;77;22052;-77
2021/04/09 03:04:28;;;;;;;;;;;;;;;-1.98;71.30;100925.52;1857758;77;21317;-77
2021/04/09 03:06:56;;;;;;;;;;;;;;;-1.95;71.49;100924.16;1836303;77;20216;-77
2021/04/09 03:09:24;;;;;;;;;;;;;;;-1.92;71.58;100926.70;1781605;79;20265;-77
2021/04/09 03:11:53;;;;;;;;;;;;;;;-1.92;71.54;100930.15;1821391;77;20226;-76
2021/04/09 03:14:21;;;;;;;;;;;;;;;-1.91;71.52;100931.00;1835243;77;22549;-77
2021/04/09 03:16:55;;;;;;;;;;;;;;;-1.91;71.54;100931.85;1850399;77;20325;-77
2021/04/09 03:19:24;;;;;;;;;;;;;;;-1.91;71.60;100932.30;1840917;78;20277;-77
2021/04/09 03:21:52;;;;;;;;;;;;;;;-1.91;71.64;100943.50;1841418;77;20245;-78
2021/04/09 03:24:19;;;;;;;;;;;;;;;-1.92;71.66;100946.98;1849946;77;20240;-77
2021/04/09 03:26:46;;;;;;;;;;;;;;;-1.96;71.66;100945.31;1851506;77;22506;-76
2021/04/09 03:29:13;;;;;;;;;;;;;;;-1.97;71.71;100959.58;1821489;77;21320;-77
2021/04/09 03:31:40;;;;;;;;;;;;;;;-1.99;71.77;100958.32;1851931;77;20417;-77
2021/04/09 03:34:07;;;;;;;;;;;;;;;-1.99;71.82;100965.23;1851847;77;20301;-77
2021/04/09 03:36:35;;;;;;;;;;;;;;;-1.99;71.85;100975.15;1851005;77;20276;-77
2021/04/09 03:39:02;;;;;;;;;;;;;;;-1.97;71.88;100972.08;1831006;77;22056;-77
2021/04/09 03:41:30;;;;;;;;;;;;;;;-1.95;71.92;100972.05;1812595;77;20224;-77
2021/04/09 03:43:57;;;;;;;;;;;;;;;-1.95;72.00;100970.31;1826510;77;20206;-76
2021/04/09 03:46:24;;;;;;;;;;;;;;;-1.89;72.22;100977.98;1840477;77;20320;-78
2021/04/09 03:48:53;;;;;;;;;;;;;;;-1.84;72.20;100980.47;1832420;77;20590;-79
2021/04/09 03:51:20;;;;;;;;;;;;;;;-1.80;72.26;100987.31;1812665;77;22351;-80
2021/04/09 03:53:47;;;;;;;;;;;;;;;-1.76;72.33;100986.36;1823926;78;20505;-78
2021/04/09 03:56:16;;;;;;;;;;;;;;;-1.69;72.41;100989.25;1836884;77;20209;-80
2021/04/09 03:58:44;;;;;;;;;;;;;;;-1.62;72.46;100993.44;1850142;77;20870;-80
2021/04/09 04:01:12;;;;;;;;;;;;;;;-1.56;72.38;100997.62;1837943;77;20478;-78
2021/04/09 04:03:39;;;;;;;;;;;;;;;-1.52;72.35;101000.59;1832175;77;22177;-79
2021/04/09 04:06:07;;;;;;;;;;;;;;;-1.49;72.35;100997.48;1816556;79;20212;-79
2021/04/09 04:08:34;;;;;;;;;;;;;;;-1.43;72.42;101008.17;1816689;79;20256;-79
2021/04/09 04:11:02;;;;;;;;;;;;;;;-1.39;72.42;101013.70;1829778;77;20214;-78
2021/04/09 04:13:32;;;;;;;;;;;;;;;-1.38;72.41;101014.11;1848045;77;20225;-78
2021/04/09 04:15:59;;;;;;;;;;;;;;;-1.37;72.42;101023.58;1809537;77;22068;-80
2021/04/09 04:18:26;;;;;;;;;;;;;;;-1.34;72.51;101023.98;1841230;77;21390;-79
2021/04/09 04:20:54;;;;;;;;;;;;;;;-1.31;72.57;101020.88;1831095;77;20257;-78
2021/04/09 04:23:21;;;;;;;;;;;;;;;-1.25;72.60;101024.66;1836446;77;20967;-82
2021/04/09 04:25:48;;;;;;;;;;;;;;;-1.19;72.66;101035.31;1835614;77;20198;-82
2021/04/09 04:28:15;;;;;;;;;;;;;;;-1.14;72.69;101037.83;1849410;77;22452;-82
2021/04/09 04:30:42;;;;;;;;;;;;;;;-1.08;72.74;101038.53;1851978;77;20649;-80
2021/04/09 04:33:10;;;;;;;;;;;;;;;-1.00;72.75;101037.08;1819259;77;20511;-79
2021/04/09 04:35:37;;;;;;;;;;;;;;;-0.94;72.80;101039.56;1836807;77;21211;-80
2021/04/09 04:38:05;;;;;;;;;;;;;;;-0.86;72.87;101044.14;1794045;80;20252;-80
2021/04/09 04:40:32;;;;;;;;;;;;;;;-0.79;72.91;101044.39;1755620;82;22812;-80
2021/04/09 04:43:00;;;;;;;;;;;;;;;-0.71;72.91;101047.68;1792185;79;20269;-81
2021/04/09 04:45:27;;;;;;;;;;;;;;;-0.62;72.93;101055.70;1771202;80;20207;-79
2021/04/09 04:47:54;;;;;;;;;;;;;;;-0.54;72.98;101051.20;1784293;80;20251;-79
2021/04/09 04:50:22;;;;;;;;;;;;;;;-0.42;73.04;101055.24;1789369;80;20963;-79
2021/04/09 04:52:50;;;;;;;;;;;;;;;-0.32;73.11;101059.33;1790991;80;22125;-79
2021/04/09 04:55:17;;;;;;;;;;;;;;;-0.22;73.18;101053.02;1781326;80;20238;-81
2021/04/09 04:57:44;;;;;;;;;;;;;;;-0.10;73.24;101061.80;1782387;80;20246;-81
2021/04/09 05:00:14;;;;;;;;;;;;;;;0.02;73.27;101058.52;1782443;80;20226;-81
2021/04/09 05:02:42;;;;;;;;;;;;;;;0.12;73.26;101064.74;1782496;79;20214;-80
2021/04/09 05:05:10;;;;;;;;;;;;;;;0.24;73.19;101063.57;1782046;80;21953;-80
2021/04/09 05:07:38;;;;;;;;;;;;;;;0.34;73.13;101062.44;1768805;80;20215;-80
2021/04/09 05:10:06;;;;;;;;;;;;;;;0.44;73.10;101066.50;1793470;80;20234;-81
2021/04/09 05:12:34;;;;;;;;;;;;;;;0.55;73.05;101068.80;1792270;80;20293;-81
2021/04/09 05:15:01;;;;;;;;;;;;;;;0.67;72.93;101066.31;1792219;80;20235;-81
2021/04/09 05:17:30;;;;;;;;;;;;;;;0.78;72.81;101071.64;1792199;80;20388;-80
2021/04/09 05:19:57;;;;;;;;;;;;;;;0.91;72.60;101076.05;1792250;80;20388;-81
2021/04/09 05:22:24;;;;;;;;;;;;;;;1.06;72.50;101076.03;1788401;80;20270;-81
2021/04/09 05:24:52;;;;;;;;;;;;;;;1.20;72.34;101080.86;1762184;80;20737;-81
2021/04/09 05:27:19;;;;;;;;;;;;;;;1.33;72.23;101079.58;1768660;80;20214;-81
2021/04/09 05:29:46;;;;;;;;;;;;;;;1.46;71.88;101079.63;1775938;80;22556;-81
2021/04/09 05:32:13;;;;;;;;;;;;;;;1.60;71.60;101083.95;1792333;80;20442;-79
2021/04/09 05:34:41;;;;;;;;;;;;;;;1.72;70.95;101082.26;1766586;80;20227;-79
2021/04/09 05:37:08;;;;;;;;;;;;;;;1.85;70.17;101086.65;1761026;80;20222;-80
2021/04/09 05:39:38;;;;;;;;;;;;;;;1.95;69.68;101093.72;1762001;80;20217;-80
2021/04/09 05:42:08;;;;;;;;;;;;;;;2.05;69.29;101087.30;1765198;80;22058;-79
2021/04/09 05:44:36;;;;;;;;;;;;;;;2.17;69.02;101088.19;1768311;80;20337;-79
2021/04/09 05:47:10;;;;;;;;;;;;;;;2.29;68.71;101095.59;1789377;80;20210;-80
2021/04/09 05:49:37;;;;;;;;;;;;;;;2.42;68.42;101100.41;1792402;80;21328;-80
2021/04/09 05:52:07;;;;;;;;;;;;;;;2.52;68.08;101101.34;1792263;80;20234;-80
2021/04/09 05:54:35;;;;;;;;;;;;;;;2.61;67.71;101101.48;1792344;80;23045;-79
2021/04/09 05:57:03;;;;;;;;;;;;;;;2.71;67.48;101100.25;1781970;80;20374;-81
2021/04/09 05:59:30;;;;;;;;;;;;;;;2.83;67.30;101111.55;1791564;80;20242;-78
2021/04/09 06:01:57;;;;;;;;;;;;;;;2.96;66.95;101114.56;1791137;80;20925;-76
2021/04/09 06:04:24;;;;;;;;;;;;;;;3.03;66.01;101110.83;1766443;80;20219;-75
2021/04/09 06:06:53;;;;;;;;;;;;;;;3.10;65.44;101124.06;1782286;80;22205;-74
2021/04/09 06:09:22;;;;;;;;;;;;;;;3.15;65.37;101127.34;1784377;80;20234;-75
2021/04/09 06:11:49;;;;;;;;;;;;;;;3.21;65.16;101128.89;1792027;80;20409;-78
2021/04/09 06:14:19;;;;;;;;;;;;;;;3.27;64.85;101124.72;1790992;80;20273;-75
2021/04/09 06:16:48;;;;;;;;;;;;;;;3.34;64.74;101124.05;1784565;80;20214;-78
2021/04/09 06:19:17;;;;;;;;;;;;;;;3.43;64.47;101124.55;1791295;80;21895;-76
2021/04/09 06:21:45;;;;;;;;;;;;;;;3.51;64.13;101129.95;1790635;80;20289;-78
2021/04/09 06:24:13;;;;;;;;;;;;;;;3.57;64.06;101127.08;1790840;80;20576;-79
2021/04/09 06:26:40;;;;;;;;;;;;;;;3.65;63.53;101131.10;1790840;80;20718;-76
2021/04/09 06:29:07;;;;;;;;;;;;;;;3.73;63.23;101132.13;1787686;80;20489;-80
2021/04/09 06:31:36;;;;;;;;;;;;;;;3.80;63.14;101129.67;1773826;79;21916;-75
2021/04/09 06:34:03;;;;;;;;;;;;;;;3.90;63.16;101138.84;1778952;79;20368;-75
2021/04/09 06:36:31;;;;;;;;;;;;;;;4.02;62.94;101133.58;1778681;79;20269;-77
2021/04/09 06:38:59;;;;;;;;;;;;;;;4.12;62.54;101137.98;1787961;79;20561;-75
2021/04/09 06:41:27;;;;;;;;;;;;;;;4.18;61.82;101132.06;1796428;78;20272;-79
2021/04/09 06:43:54;;;;;;;;;;;;;;;4.22;61.78;101143.23;1739921;81;21827;-80
2021/04/09 06:46:22;;;;;;;;;;;;;;;4.28;61.83;101145.15;1765409;78;20833;-78
2021/04/09 06:48:49;;;;;;;;;;;;;;;4.39;61.73;101143.86;1761792;80;20267;-79
2021/04/09 06:51:16;;;;;;;;;;;;;;;4.48;61.84;101140.40;1757209;80;20468;-78
2021/04/09 06:53:46;;;;;;;;;;;;;;;4.58;61.32;101149.56;1775975;80;20264;-78
2021/04/09 06:56:15;;;;;;;;;;;;;;;4.60;61.03;101149.03;1730763;82;22046;-82
2021/04/09 06:58:45;;;;;;;;;;;;;;;4.64;60.67;101147.62;1732226;81;20285;-77
2021/04/09 07:01:13;;;;;;;;;;;;;;;4.69;60.73;101148.25;1748441;81;20255;-78
2021/04/09 07:03:40;;;;;;;;;;;;;;;4.79;60.61;101147.79;1734743;81;20480;-77
2021/04/09 07:06:07;;;;;;;;;;;;;;;4.88;60.09;101152.63;1777420;80;20267;-78
2021/04/09 07:08:40;;;;;;;;;;;;;;;4.91;59.98;101151.64;1775837;80;21953;-78
2021/04/09 07:11:18;;;;;;;;;;;;;;;4.95;59.89;101153.69;1783014;79;20835;-78
2021/04/09 07:13:59;;;;;;;;;;;;;;;5.01;59.83;101153.39;1780562;79;20305;-74
2021/04/09 07:16:26;;;;;;;;;;;;;;;5.06;59.36;101156.68;1757343;80;20903;-76
2021/04/09 07:19:04;;;;;;;;;;;;;;;5.09;59.39;101160.00;1780345;80;20407;-80
2021/04/09 07:21:33;;;;;;;;;;;;;;;5.20;59.58;101159.98;1781889;80;20379;-76
2021/04/09 07:24:17;;;;;;;;;;;;;;;5.34;59.73;101165.01;1781670;80;20438;-79
2021/04/09 07:26:51;;;;;;;;;;;;;;;5.50;59.33;101165.61;1781937;80;20277;-76
2021/04/09 07:29:34;;;;;;;;;;;;;;;5.57;59.14;101166.56;1781285;80;20468;-77
2021/04/09 07:32:14;;;;;;;;;;;;;;;5.60;58.99;101166.45;1757981;80;20236;-75
2021/04/09 07:34:53;;;;;;;;;;;;;;;5.68;58.40;101174.78;1749473;82;21956;-78
2021/04/09 07:37:21;;;;;;;;;;;;;;;5.67;57.59;101169.16;1754404;80;20425;-77
2021/04/09 07:39:57;;;;;;;;;;;;;;;5.70;57.82;101174.28;1799279;79;20227;-77
2021/04/09 07:42:33;;;;;;;;;;;;;;;5.72;57.85;101168.95;1780048;80;20584;-77
2021/04/09 07:45:11;;;;;;;;;;;;;;;5.75;57.70;101172.73;1751937;81;20284;-77
2021/04/09 07:47:39;;;;;;;;;;;;;;;5.83;58.12;101175.85;1751916;80;22509;-78
2021/04/09 07:50:10;;;;;;;;;;;;;;;6.01;58.22;101171.09;1757294;80;20344;-79
2021/04/09 07:52:41;;;;;;;;;;;;;;;6.20;57.90;101169.74;1760019;80;20219;-79
2021/04/09 07:55:17;;;;;;;;;;;;;;;6.38;57.67;101171.09;1773443;80;20921;-80
2021/04/09 07:57:45;;;;;;;;;;;;;;;6.46;57.36;101164.50;1754159;80;20256;-74
2021/04/09 08:00:22;;;;;;;;;;;;;;;6.49;56.88;101168.78;1754968;80;22065;-77
2021/04/09 08:02:52;;;;;;;;;;;;;;;6.46;56.64;101168.91;1784976;80;20372;-78
2021/04/09 08:05:24;;;;;;;;;;;;;;;6.46;56.56;101176.31;1784659;79;20494;-77
2021/04/09 08:07:52;;;;;;;;;;;;;;;6.49;56.26;101163.06;1750016;82;21357;-75
2021/04/09 08:10:32;;;;;;;;;;;;;;;6.58;56.66;101169.63;1757662;80;20492;-77
2021/04/09 08:13:01;;;;;;;;;;;;;;;6.64;56.48;101173.70;1735706;82;21866;-80
2021/04/09 08:15:33;;;;;;;;;;;;;;;6.71;56.23;101168.08;1781259;80;20493;-79
2021/04/09 08:18:07;;;;;;;;;;;;;;;6.86;55.86;101171.25;1744463;81;20237;-77
2021/04/09 08:20:38;;;;;;;;;;;;;;;7.05;55.92;101168.98;1770951;80;21358;-83
2021/04/09 08:23:07;;;;;;;;;;;;;;;7.27;55.84;101166.92;1780410;80;20217;-78
2021/04/09 08:25:34;;;;;;;;;;;;;;;7.48;55.57;101172.80;1753888;82;23000;-79
2021/04/09 08:28:04;;;;;;;;;;;;;;;7.57;55.13;101170.15;1740656;81;20661;-78
2021/04/09 08:30:32;;;;;;;;;;;;;;;7.55;54.58;101173.33;1758949;81;20745;-79
2021/04/09 08:32:59;;;;;;;;;;;;;;;7.39;54.53;101175.92;1751893;81;21757;-77
2021/04/09 08:35:27;;;;;;;;;;;;;;;7.30;54.85;101173.31;1770523;80;20266;-76
2021/04/09 08:37:55;;;;;;;;;;;;;;;7.25;54.90;101170.56;1771900;80;22064;-76
2021/04/09 08:40:22;;;;;;;;;;;;;;;7.25;55.46;101173.20;1771146;80;20351;-75
2021/04/09 08:42:50;;;;;;;;;;;;;;;7.30;55.10;101177.73;1767393;79;20748;-75
2021/04/09 08:45:19;;;;;;;;;;;;;;;7.28;54.72;101179.13;1793209;79;20455;-78
2021/04/09 08:47:49;;;;;;;;;;;;;;;7.24;54.52;101182.86;1795136;79;20271;-80
2021/04/09 08:50:17;;;;;;;;;;;;;;;7.19;54.67;101171.72;1773287;79;22102;-78
2021/04/09 08:52:45;;;;;;;;;;;;;;;7.24;54.75;101174.09;1758818;81;20443;-77
2021/04/09 08:55:13;;;;;;;;;;;;;;;7.35;54.75;101177.03;1768236;79;20237;-75
2021/04/09 08:57:44;;;;;;;;;;;;;;;7.54;54.06;101172.95;1768696;80;20467;-76
2021/04/09 09:00:19;;;;;;;;;;;;;;;7.74;53.89;101166.98;1757329;80;20275;-78
2021/04/09 09:02:53;;;;;;;;;;;;;;;7.95;51.89;101168.05;1762329;80;23869;-79
2021/04/09 09:05:27;;;;;;;;;;;;;;;7.95;51.03;101163.63;1777156;80;20302;-76
2021/04/09 09:07:55;;;;;;;;;;;;;;;7.94;50.54;101155.83;1773584;80;20744;-73
2021/04/09 09:10:32;;;;;;;;;;;;;;;7.84;49.97;101166.48;1738633;80;20304;-75
2021/04/09 09:13:15;;;;;;;;;;;;;;;7.70;49.94;101168.54;1750809;81;20218;-74
2021/04/09 09:15:56;;;;;;;;;;;;;;;7.55;49.60;101167.61;1746241;80;21352;-76
2021/04/09 09:18:28;;;;;;;;;;;;;;;7.45;49.17;101163.31;1752408;80;20362;-74
2021/04/09 09:21:18;;;;;;;;;;;;;;;7.49;50.56;101163.14;1775113;80;20286;-76
2021/04/09 09:24:01;;;;;;;;;;;;;;;7.66;50.14;101169.19;1765505;80;20480;-73
2021/04/09 09:26:41;;;;;;;;;;;;;;;7.80;49.98;101172.36;1763865;80;20569;-76
2021/04/09 09:29:11;;;;;;;;;;;;;;;7.90;49.63;101171.38;1761330;80;22818;-78
2021/04/09 09:31:41;;;;;;;;;;;;;;;7.91;49.08;101163.88;1750878;80;20368;-74
2021/04/09 09:34:24;;;;;;;;;;;;;;;7.91;49.74;101169.13;1774270;80;20575;-75
2021/04/09 09:37:22;;;;;;;;;;;;;;;8.07;49.55;101163.88;1732429;82;20473;-75
2021/04/09 09:39:58;;;;;;;;;;;;;;;8.26;49.62;101154.00;1742453;80;20262;-75
2021/04/09 09:42:28;;;;;;;;;;;;;;;8.56;49.41;101153.56;1762869;81;22970;-75
2021/04/09 09:44:58;;;;;;;;;;;;;;;8.84;48.77;101158.52;1736288;81;20399;-75
2021/04/09 09:47:32;;;;;;;;;;;;;;;8.87;47.40;101153.06;1730498;83;20286;-75
2021/04/09 09:50:12;;;;;;;;;;;;;;;8.74;47.18;101160.02;1730907;83;20308;-75
2021/04/09 09:53:00;;;;;;;;;;;;;;;8.57;45.75;101165.79;1746191;81;20586;-74
2021/04/09 09:55:31;;;;;;;;;;;;;;;8.40;46.32;101163.78;1747738;81;21900;-75
2021/04/09 09:58:16;;;;;;;;;;;;;;;8.28;47.02;101163.97;1763162;80;21294;-76
2021/04/09 10:00:53;;;;;;;;;;;;;;;8.21;47.51;101162.64;1779600;80;20827;-75
2021/04/09 10:03:29;;;;;;;;;;;;;;;8.21;48.38;101160.01;1775242;80;20435;-74
2021/04/09 10:06:01;;;;;;;;;;;;;;;8.39;49.09;101160.74;1761246;81;20400;-75
2021/04/09 10:08:29;;;;;;;;;;;;;;;8.74;49.89;101156.06;1761189;81;22678;-76
2021/04/09 10:11:03;;;;;;;;;;;;;;;9.27;48.43;101150.20;1761148;81;20263;-76
2021/04/09 10:13:41;;;;;;;;;;;;;;;9.72;47.86;101153.52;1757724;81;20323;-75
2021/04/09 10:16:10;;;;;;;;;;;;;;;10.14;46.11;101147.30;1761227;81;20546;-74
2021/04/09 10:18:44;;;;;;;;;;;;;;;10.30;44.62;101151.95;1759307;81;20287;-74
2021/04/09 10:21:15;;;;;;;;;;;;;;;10.27;43.81;101152.17;1758812;81;22519;-75
2021/04/09 10:23:46;;;;;;;;;;;;;;;10.17;43.89;101155.48;1754824;81;20295;-74
2021/04/09 10:26:13;;;;;;;;;;;;;;;9.96;42.72;101160.36;1761175;81;20271;-73
2021/04/09 10:28:42;;;;;;;;;;;;;;;9.69;42.71;101164.28;1753432;81;20306;-75
2021/04/09 10:31:14;;;;;;;;;;;;;;;9.37;43.42;101164.98;1730803;83;20290;-75
2021/04/09 10:33:43;;;;;;;;;;;;;;;9.22;44.16;101171.18;1748875;81;23043;-75
2021/04/09 10:36:20;;;;;;;;;;;;;;;9.13;43.45;101162.89;1748853;82;20368;-75
2021/04/09 10:38:51;;;;;;;;;;;;;;;8.95;43.28;101164.47;1751904;81;20291;-76
2021/04/09 10:41:32;;;;;;;;;;;;;;;8.73;43.38;101168.86;1753219;81;20315;-74
2021/04/09 10:44:14;;;;;;;;;;;;;;;8.55;43.78;101166.83;1750878;81;20344;-76
2021/04/09 10:46:42;;;;;;;;;;;;;;;8.43;44.51;101167.55;1762906;81;22986;-75
2021/04/09 10:49:12;;;;;;;;;;;;;;;8.34;44.63;101164.94;1762795;81;21326;-74
2021/04/09 10:51:41;;;;;;;;;;;;;;;8.32;44.05;101166.34;1763956;80;20198;-75
2021/04/09 10:54:16;;;;;;;;;;;;;;;8.24;43.70;101167.72;1763935;80;21624;-74
2021/04/09 10:56:56;;;;;;;;;;;;;;;8.24;43.89;101166.41;1762738;81;20550;-74
2021/04/09 10:59:31;;;;;;;;;;;;;;;8.34;43.22;101166.25;1762780;81;22046;-74
2021/04/09 11:01:59;;;;;;;;;;;;;;;8.43;42.74;101168.86;1761738;81;20268;-74
2021/04/09 11:04:28;;;;;;;;;;;;;;;8.55;42.50;101166.36;1754983;80;20221;-73
2021/04/09 11:07:00;;;;;;;;;;;;;;;8.74;42.13;101157.38;1762748;81;20764;-75
2021/04/09 11:09:42;;;;;;;;;;;;;;;9.00;41.77;101151.87;1762236;81;20295;-74
2021/04/09 11:12:25;;;;;;;;;;;;;;;9.34;40.90;101154.12;1762804;80;22042;-75
2021/04/09 11:15:10;;;;;;;;;;;;;;;9.65;41.20;101155.72;1762735;81;20380;-74
2021/04/09 11:17:40;;;;;;;;;;;;;;;10.14;40.27;101156.54;1762660;81;20220;-75
2021/04/09 11:20:25;;;;;;;;;;;;;;;10.54;39.95;101148.66;1730001;81;20295;-74
2021/04/09 11:23:06;;;;;;;;;;;;;;;10.90;39.80;101149.27;1739350;81;20264;-74
2021/04/09 11:25:41;;;;;;;;;;;;;;;11.19;39.05;101144.61;1762893;81;21881;-74
2021/04/09 11:28:11;;;;;;;;;;;;;;;11.45;40.01;101140.98;1749600;80;21360;-77
2021/04/09 11:30:38;;;;;;;;;;;;;;;11.84;40.24;101135.14;1754431;80;20277;-77
2021/04/09 11:33:07;;;;;;;;;;;;;;;12.38;40.30;101125.42;1770513;80;20453;-77
2021/04/09 11:35:36;;;;;;;;;;;;;;;12.69;39.36;101134.55;1762857;80;20277;-83
2021/04/09 11:38:06;;;;;;;;;;;;;;;12.83;37.71;101132.16;1733350;81;22449;-78
2021/04/09 11:40:42;;;;;;;;;;;;;;;12.70;38.49;101133.58;1733753;81;20376;-77
2021/04/09 11:43:12;;;;;;;;;;;;;;;12.61;38.11;101136.93;1746983;81;20303;-79
2021/04/09 11:45:41;;;;;;;;;;;;;;;12.28;37.97;101137.19;1770101;79;20438;-76
2021/04/09 11:48:31;;;;;;;;;;;;;;;11.92;38.61;101144.70;1785181;79;20276;-75
2021/04/09 11:51:20;;;;;;;;;;;;;;;11.69;38.55;101142.37;1753221;81;22947;-75
2021/04/09 11:54:02;;;;;;;;;;;;;;;11.47;38.78;101142.20;1785514;80;20224;-74
2021/04/09 11:56:45;;;;;;;;;;;;;;;11.30;39.69;101142.09;1792616;80;20303;-75
2021/04/09 11:59:17;;;;;;;;;;;;;;;11.11;39.80;101141.67;1784966;79;20304;-76
2021/04/09 12:01:46;;;;;;;;;;;;;;;11.00;39.94;101140.23;1787522;79;20292;-76
2021/04/09 12:04:33;;;;;;;;;;;;;;;10.97;41.01;101129.39;1783604;80;22010;-79
2021/04/09 12:07:01;;;;;;;;;;;;;;;11.08;40.99;101128.65;1789809;80;20287;-77
2021/04/09 12:09:29;;;;;;;;;;;;;;;11.22;40.88;101125.91;1797324;79;20770;-78
2021/04/09 12:11:57;;;;;;;;;;;;;;;11.30;39.78;101128.02;1790100;79;20467;-78
2021/04/09 12:14:35;;;;;;;;;;;;;;;11.10;39.63;101130.73;1738306;82;20477;-75
2021/04/09 12:17:04;;;;;;;;;;;;;;;10.95;40.31;101135.27;1787680;80;23480;-76
2021/04/09 12:19:31;;;;;;;;;;;;;;;10.86;40.53;101127.50;1744309;81;20312;-76
2021/04/09 12:21:59;;;;;;;;;;;;;;;10.78;40.92;101127.64;1769660;80;20290;-75
2021/04/09 12:24:27;;;;;;;;;;;;;;;10.73;41.38;101129.77;1760689;80;22300;-75
2021/04/09 12:26:54;;;;;;;;;;;;;;;10.66;41.46;101128.48;1759034;80;20344;-75
2021/04/09 12:29:21;;;;;;;;;;;;;;;10.52;40.63;101128.11;1759881;80;21814;-75
2021/04/09 12:31:49;;;;;;;;;;;;;;;10.30;40.37;101126.88;1780191;80;20246;-74
2021/04/09 12:34:20;;;;;;;;;;;;;;;10.15;39.99;101126.55;1779286;80;20273;-76
2021/04/09 12:36:48;;;;;;;;;;;;;;;10.11;40.64;101123.72;1781529;80;20467;-79
2021/04/09 12:39:16;;;;;;;;;;;;;;;10.13;41.08;101121.81;1778149;80;20297;-76
2021/04/09 12:41:44;;;;;;;;;;;;;;;10.18;41.24;101122.38;1799084;79;22982;-76
2021/04/09 12:44:13;;;;;;;;;;;;;;;10.18;40.95;101121.06;1757491;81;20295;-76
2021/04/09 12:46:41;;;;;;;;;;;;;;;10.17;40.69;101122.01;1734555;82;20298;-77
2021/04/09 12:49:08;;;;;;;;;;;;;;;10.13;40.72;101116.54;1763653;80;21353;-78
2021/04/09 12:51:37;;;;;;;;;;;;;;;10.07;40.47;101118.76;1775416;80;20270;-75
2021/04/09 12:54:04;;;;;;;;;;;;;;;10.00;40.92;101116.98;1733525;82;22053;-76
2021/04/09 12:56:31;;;;;;;;;;;;;;;9.93;40.53;101113.88;1743127;82;21263;-75
2021/04/09 12:58:58;;;;;;;;;;;;;;;9.88;40.38;101111.19;1743774;81;20826;-74